Time;durP1;ratioP1;P1;durP2;ratioP2;P2;SDS_P1;SDS_P2;PMS_P1;PMS_P2;Temp;Humidity;BMP_temperature;BMP_pressure;BME280_temperature;BME280_humidity;BME280_pressure;Samples;Min_cycle;Max_cycle;Signal;HPM_P1;HPM_P2
2021/06/10 00:02:11;;;;;;;10.63;8.57;;;18.20;99.90;;;;;;5134912;27;20300;-59
2021/06/10 00:04:37;;;;;;;11.00;8.20;;;18.20;99.90;;;;;;5134820;27;20214;-56
2021/06/10 00:07:04;;;;;;;10.97;9.03;;;18.10;99.90;;;;;;5134996;27;20248;-56
2021/06/10 00:09:32;;;;;;;9.20;8.00;;;18.10;99.90;;;;;;5134971;27;20214;-58
2021/06/10 00:11:58;;;;;;;9.77;7.83;;;18.00;99.90;;;;;;5134812;27;20663;-52
2021/06/10 00:14:25;;;;;;;11.80;8.77;;;18.00;99.90;;;;;;5134630;27;20222;-57
2021/06/10 00:16:51;;;;;;;10.07;9.00;;;17.90;99.90;;;;;;5134637;27;20227;-58
2021/06/10 00:19:18;;;;;;;10.77;8.83;;;17.80;99.90;;;;;;5134508;27;20672;-59
2021/06/10 00:21:45;;;;;;;8.90;8.00;;;17.80;99.90;;;;;;5134588;27;20202;-57
2021/06/10 00:24:11;;;;;;;11.13;8.47;;;17.70;99.90;;;;;;5134788;27;20207;-56
2021/06/10 00:26:39;;;;;;;15.63;8.83;;;17.60;99.90;;;;;;5134498;27;20223;-58
2021/06/10 00:29:05;;;;;;;13.23;9.43;;;17.60;99.90;;;;;;5134410;27;20675;-54
2021/06/10 00:31:31;;;;;;;11.00;9.77;;;17.50;99.90;;;;;;5134089;27;20210;-56
2021/06/10 00:33:58;;;;;;;14.07;9.50;;;17.50;99.90;;;;;;5134574;27;20222;-54
2021/06/10 00:36:24;;;;;;;10.53;9.40;;;17.40;99.90;;;;;;5134232;27;20219;-56
2021/06/10 00:38:50;;;;;;;11.10;9.90;;;17.30;99.90;;;;;;5134452;27;20203;-59
2021/06/10 00:41:17;;;;;;;15.50;11.10;;;17.30;99.90;;;;;;5134104;27;20214;-59
2021/06/10 00:43:44;;;;;;;11.93;10.47;;;17.20;99.90;;;;;;5134222;27;20562;-57
2021/06/10 00:46:10;;;;;;;13.13;10.47;;;17.20;99.90;;;;;;5133900;27;20227;-56
2021/06/10 00:48:36;;;;;;;15.83;12.87;;;17.20;99.90;;;;;;5134392;27;20203;-60
2021/06/10 00:51:03;;;;;;;15.17;11.50;;;17.10;99.90;;;;;;5133622;27;20211;-56
2021/06/10 00:53:30;;;;;;;16.93;14.03;;;17.10;99.90;;;;;;5134015;27;20210;-59
2021/06/10 00:55:58;;;;;;;16.07;13.13;;;17.10;99.90;;;;;;5133913;27;20207;-57
2021/06/10 00:58:24;;;;;;;16.10;13.47;;;17.00;99.90;;;;;;5133876;27;20210;-58
2021/06/10 01:00:53;;;;;;;16.17;14.23;;;17.00;99.90;;;;;;5133520;27;20207;-59
2021/06/10 01:03:19;;;;;;;17.03;14.20;;;16.90;99.90;;;;;;5133992;27;20198;-59
2021/06/10 01:05:49;;;;;;;17.27;15.50;;;16.90;99.90;;;;;;5133988;27;20206;-60
2021/06/10 01:08:23;;;;;;;16.50;14.80;;;16.80;99.90;;;;;;5134465;27;20671;-59
2021/06/10 01:11:00;;;;;;;18.40;14.87;;;16.80;99.90;;;;;;5134563;27;20249;-58
2021/06/10 01:13:37;;;;;;;16.87;14.47;;;16.70;99.90;;;;;;5133381;27;20202;-53
2021/06/10 01:16:07;;;;;;;19.17;16.43;;;16.70;99.90;;;;;;5133796;27;20222;-55
2021/06/10 01:18:36;;;;;;;18.77;15.20;;;16.60;99.90;;;;;;5133632;27;20253;-54
2021/06/10 01:21:03;;;;;;;18.83;16.63;;;16.60;99.90;;;;;;5133423;27;20230;-56
2021/06/10 01:23:40;;;;;;;18.50;16.57;;;16.60;99.90;;;;;;5133541;27;20229;-54
2021/06/10 01:26:21;;;;;;;20.97;15.80;;;16.50;99.90;;;;;;5133835;27;20347;-57
2021/06/10 01:28:51;;;;;;;20.53;17.60;;;16.50;99.90;;;;;;5133555;27;20327;-59
2021/06/10 01:31:18;;;;;;;20.43;17.30;;;16.50;99.90;;;;;;5134140;27;20202;-60
2021/06/10 01:33:48;;;;;;;21.43;17.70;;;16.50;99.90;;;;;;5134791;27;20218;-58
2021/06/10 01:36:17;;;;;;;26.70;17.70;;;16.50;99.90;;;;;;5133425;27;20223;-58
2021/06/10 01:38:46;;;;;;;20.60;18.40;;;16.50;99.90;;;;;;5136032;27;20206;-59
2021/06/10 01:41:14;;;;;;;20.47;18.20;;;16.40;99.90;;;;;;5140194;27;20205;-57
2021/06/10 01:43:41;;;;;;;26.67;21.37;;;16.40;99.90;;;;;;5139733;27;20714;-60
2021/06/10 01:46:11;;;;;;;26.37;21.80;;;16.30;99.90;;;;;;5134979;27;20233;-59
2021/06/10 01:48:38;;;;;;;25.30;21.70;;;16.30;99.90;;;;;;5132927;27;20203;-56
2021/06/10 01:51:05;;;;;;;26.53;21.67;;;16.30;99.90;;;;;;5132634;27;20218;-59
2021/06/10 01:53:32;;;;;;;24.93;22.00;;;16.30;99.90;;;;;;5132923;27;20670;-58
2021/06/10 01:56:00;;;;;;;30.30;23.20;;;16.30;99.90;;;;;;5132978;27;20203;-60
2021/06/10 01:58:27;;;;;;;27.43;21.37;;;16.20;99.90;;;;;;5133084;27;20210;-60
2021/06/10 02:00:54;;;;;;;28.63;23.40;;;16.20;99.90;;;;;;5132703;27;20199;-59
2021/06/10 02:03:23;;;;;;;25.27;22.17;;;16.20;99.90;;;;;;5132284;27;20574;-60
2021/06/10 02:05:50;;;;;;;26.53;21.90;;;16.10;99.90;;;;;;5132765;28;20659;-60
2021/06/10 02:08:19;;;;;;;25.13;22.13;;;16.10;99.90;;;;;;5132995;28;20227;-60
2021/06/10 02:10:49;;;;;;;26.27;21.63;;;16.00;99.90;;;;;;5132892;28;20205;-60
2021/06/10 02:13:16;;;;;;;26.37;22.17;;;16.00;99.90;;;;;;5132808;28;20211;-60
2021/06/10 02:15:44;;;;;;;24.37;21.67;;;16.00;99.90;;;;;;5132514;28;20219;-60
2021/06/10 02:18:12;;;;;;;22.57;20.03;;;15.90;99.90;;;;;;5132796;28;20203;-60
2021/06/10 02:20:39;;;;;;;25.63;19.87;;;15.90;99.90;;;;;;5132882;28;20304;-60
2021/06/10 02:23:06;;;;;;;23.73;20.60;;;15.80;99.90;;;;;;5132789;28;20203;-60
2021/06/10 02:25:32;;;;;;;25.23;20.27;;;15.90;99.90;;;;;;5132835;28;20286;-58
2021/06/10 02:27:58;;;;;;;25.37;18.60;;;15.80;99.90;;;;;;5132598;28;20218;-59
2021/06/10 02:30:24;;;;;;;23.20;18.93;;;15.80;99.90;;;;;;5132387;28;20210;-60
2021/06/10 02:32:50;;;;;;;22.73;19.07;;;15.70;99.90;;;;;;5132863;28;20259;-60
2021/06/10 02:35:17;;;;;;;22.57;18.80;;;15.70;99.90;;;;;;5132556;28;20219;-59
2021/06/10 02:37:47;;;;;;;23.57;19.93;;;15.70;99.90;;;;;;5132764;28;20311;-60
2021/06/10 02:40:17;;;;;;;20.47;17.73;;;15.70;99.90;;;;;;5132402;28;20334;-55
2021/06/10 02:42:44;;;;;;;25.23;18.77;;;15.60;99.90;;;;;;5132495;28;20694;-59
2021/06/10 02:45:11;;;;;;;23.10;17.87;;;15.60;99.90;;;;;;5132314;28;20202;-59
2021/06/10 02:47:41;;;;;;;18.77;16.83;;;15.70;99.90;;;;;;5132603;28;20223;-60
2021/06/10 02:50:11;;;;;;;21.57;17.23;;;15.70;99.90;;;;;;5132285;28;20253;-60
2021/06/10 02:52:41;;;;;;;20.97;17.13;;;15.70;99.90;;;;;;5132489;28;20214;-59
2021/06/10 02:55:11;;;;;;;18.57;16.23;;;15.70;99.90;;;;;;5132318;28;20223;-58
2021/06/10 02:57:38;;;;;;;21.13;17.60;;;15.70;99.90;;;;;;5132306;28;20230;-59
2021/06/10 03:00:06;;;;;;;20.30;17.47;;;15.70;99.90;;;;;;5132284;28;20210;-59
2021/06/10 03:02:33;;;;;;;23.60;17.80;;;15.70;99.90;;;;;;5132404;28;20346;-59
2021/06/10 03:05:00;;;;;;;19.47;17.33;;;15.70;99.90;;;;;;5132456;28;20195;-60
2021/06/10 03:07:26;;;;;;;21.80;19.17;;;15.60;99.90;;;;;;5132322;28;20246;-59
2021/06/10 03:09:54;;;;;;;22.20;19.27;;;15.70;99.90;;;;;;5132243;28;20268;-59
2021/06/10 03:12:22;;;;;;;24.30;19.53;;;15.60;99.90;;;;;;5132533;28;20259;-59
2021/06/10 03:14:48;;;;;;;23.30;19.53;;;15.60;99.90;;;;;;5134074;27;20223;-60
2021/06/10 03:17:17;;;;;;;27.97;22.77;;;15.60;99.90;;;;;;5135885;27;20308;-61
2021/06/10 03:19:44;;;;;;;28.33;24.60;;;15.60;99.90;;;;;;5135988;27;20211;-58
2021/06/10 03:22:10;;;;;;;31.03;24.70;;;15.60;99.90;;;;;;5135750;27;20214;-60
2021/06/10 03:24:37;;;;;;;29.67;24.57;;;15.60;99.90;;;;;;5135956;27;20204;-59
2021/06/10 03:27:05;;;;;;;32.67;24.10;;;15.60;99.90;;;;;;5135893;27;20222;-59
2021/06/10 03:29:35;;;;;;;34.23;25.87;;;15.60;99.90;;;;;;5135891;27;20206;-59
2021/06/10 03:32:01;;;;;;;31.20;25.13;;;15.50;99.90;;;;;;5135364;27;20214;-60
2021/06/10 03:34:28;;;;;;;37.57;26.60;;;15.50;99.90;;;;;;5135919;27;20223;-58
2021/06/10 03:36:56;;;;;;;34.43;27.83;;;15.50;99.90;;;;;;5135646;27;20309;-58
2021/06/10 03:39:23;;;;;;;36.87;28.10;;;15.50;99.90;;;;;;5135610;27;20945;-56
2021/06/10 03:41:52;;;;;;;38.87;29.23;;;15.50;99.90;;;;;;5135756;27;20207;-60
2021/06/10 03:44:18;;;;;;;37.97;29.00;;;15.50;99.90;;;;;;5135830;27;20570;-57
2021/06/10 03:46:45;;;;;;;37.63;29.40;;;15.50;99.90;;;;;;5135484;27;20258;-56
2021/06/10 03:49:12;;;;;;;34.53;27.97;;;15.50;99.90;;;;;;5135451;27;20207;-55
2021/06/10 03:51:39;;;;;;;40.17;29.73;;;15.50;99.90;;;;;;5135059;27;20214;-56
2021/06/10 03:54:06;;;;;;;37.93;30.07;;;15.50;99.90;;;;;;5135497;27;20222;-57
2021/06/10 03:56:32;;;;;;;38.00;30.00;;;15.60;99.90;;;;;;5135610;27;20265;-58
2021/06/10 03:58:58;;;;;;;39.37;30.10;;;15.60;99.90;;;;;;5135216;27;20206;-58
2021/06/10 04:01:24;;;;;;;35.00;29.20;;;15.60;99.90;;;;;;5134951;27;20203;-58
2021/06/10 04:03:52;;;;;;;39.47;30.00;;;15.60;99.90;;;;;;5127827;27;20222;-57
2021/06/10 04:06:25;;;;;;;37.50;31.07;;;15.60;99.90;;;;;;5114079;28;20250;-59
2021/06/10 04:08:52;;;;;;;35.17;30.43;;;15.70;99.90;;;;;;5114586;28;20214;-59
2021/06/10 04:11:18;;;;;;;36.80;30.67;;;15.70;99.90;;;;;;5113652;27;20691;-59
2021/06/10 04:13:44;;;;;;;39.87;30.03;;;15.70;99.90;;;;;;5115559;27;20280;-59
2021/06/10 04:16:10;;;;;;;36.13;31.17;;;15.70;99.90;;;;;;5125911;27;20222;-60
2021/06/10 04:18:36;;;;;;;37.73;31.47;;;15.80;99.90;;;;;;5134483;27;20561;-60
2021/06/10 04:21:04;;;;;;;40.93;33.40;;;15.80;99.90;;;;;;5134473;27;20207;-61
2021/06/10 04:23:30;;;;;;;44.37;32.93;;;15.80;99.90;;;;;;5134630;27;20226;-61
2021/06/10 04:25:56;;;;;;;42.47;33.77;;;15.90;99.90;;;;;;5134009;27;20214;-61
2021/06/10 04:28:22;;;;;;;38.57;32.87;;;15.90;99.90;;;;;;5134478;27;20251;-60
2021/06/10 04:30:48;;;;;;;44.47;36.00;;;15.90;99.90;;;;;;5134192;27;20203;-60
2021/06/10 04:33:14;;;;;;;47.50;36.50;;;16.00;99.90;;;;;;5134015;27;20624;-58
2021/06/10 04:35:40;;;;;;;44.70;35.60;;;16.00;99.90;;;;;;5134156;27;20226;-55
2021/06/10 04:38:08;;;;;;;45.53;36.43;;;16.10;99.90;;;;;;5134356;27;20199;-60
2021/06/10 04:40:34;;;;;;;47.90;36.47;;;16.10;99.90;;;;;;5134145;27;20576;-60
2021/06/10 04:43:00;;;;;;;45.43;36.70;;;16.20;99.90;;;;;;5134156;27;20210;-57
2021/06/10 04:45:27;;;;;;;42.80;34.80;;;16.30;99.90;;;;;;5134058;27;20256;-61
2021/06/10 04:47:53;;;;;;;42.50;34.40;;;16.40;99.90;;;;;;5133691;27;20218;-57
2021/06/10 04:50:19;;;;;;;40.63;34.07;;;16.50;99.90;;;;;;5133855;27;20215;-59
2021/06/10 04:52:45;;;;;;;44.70;35.33;;;16.60;99.90;;;;;;5133912;27;20217;-59
2021/06/10 04:55:14;;;;;;;42.83;34.87;;;16.60;99.90;;;;;;5133786;27;20605;-60
2021/06/10 04:57:40;;;;;;;48.33;34.10;;;16.70;99.90;;;;;;5133704;27;20242;-59
2021/06/10 05:00:07;;;;;;;39.53;34.10;;;16.70;99.90;;;;;;5133628;27;20203;-58
2021/06/10 05:02:35;;;;;;;42.33;34.07;;;16.80;99.90;;;;;;5133573;27;20207;-59
2021/06/10 05:05:01;;;;;;;43.40;33.87;;;16.90;99.90;;;;;;5133837;27;20199;-58
2021/06/10 05:07:27;;;;;;;42.00;32.20;;;17.00;99.90;;;;;;5133669;27;20245;-60
2021/06/10 05:09:54;;;;;;;37.67;30.33;;;17.20;99.90;;;;;;5133503;27;20203;-61
2021/06/10 05:12:21;;;;;;;36.70;29.90;;;17.30;99.90;;;;;;5133612;27;20207;-61
2021/06/10 05:14:47;;;;;;;39.97;29.13;;;17.40;99.90;;;;;;5125566;27;20722;-61
2021/06/10 05:17:13;;;;;;;34.60;29.97;;;17.50;99.90;;;;;;5112931;28;20232;-61
2021/06/10 05:19:39;;;;;;;35.00;27.47;;;17.60;99.90;;;;;;5112798;28;20199;-61
2021/06/10 05:22:06;;;;;;;35.47;27.90;;;17.60;99.90;;;;;;5111093;28;20208;-61
2021/06/10 05:24:32;;;;;;;32.80;28.00;;;17.70;99.90;;;;;;5112392;28;20211;-60
2021/06/10 05:26:58;;;;;;;35.63;27.37;;;17.80;99.90;;;;;;5112766;28;20227;-61
2021/06/10 05:29:25;;;;;;;31.53;26.90;;;17.90;99.90;;;;;;5112647;28;20207;-62
2021/06/10 05:31:52;;;;;;;31.43;24.87;;;17.90;99.90;;;;;;5117167;27;20217;-65
2021/06/10 05:34:18;;;;;;;32.43;26.60;;;18.00;99.90;;;;;;5119485;27;20234;-64
2021/06/10 05:36:45;;;;;;;29.17;24.03;;;18.10;99.90;;;;;;5132508;27;20223;-64
2021/06/10 05:39:11;;;;;;;29.37;23.00;;;18.20;99.90;;;;;;5133678;27;20234;-64
2021/06/10 05:41:37;;;;;;;26.33;22.23;;;18.30;99.90;;;;;;5132754;27;20206;-63
2021/06/10 05:44:04;;;;;;;24.87;21.37;;;18.40;99.90;;;;;;5132727;27;20202;-65
2021/06/10 05:46:32;;;;;;;24.53;21.00;;;18.50;99.90;;;;;;5133003;27;20230;-65
2021/06/10 05:48:58;;;;;;;26.10;19.07;;;18.70;99.90;;;;;;5132715;27;20199;-64
2021/06/10 05:51:24;;;;;;;21.53;18.17;;;18.80;99.90;;;;;;5112181;27;20212;-63
2021/06/10 05:53:50;;;;;;;23.97;20.20;;;18.90;99.90;;;;;;5111957;28;20275;-64
2021/06/10 05:56:16;;;;;;;20.97;17.17;;;19.00;99.90;;;;;;5111909;28;20223;-64
2021/06/10 05:58:42;;;;;;;25.50;20.27;;;19.10;99.90;;;;;;5111960;28;20208;-63
2021/06/10 06:01:09;;;;;;;23.77;20.30;;;19.20;99.90;;;;;;5112198;28;20236;-64
2021/06/10 06:03:36;;;;;;;26.77;18.97;;;19.30;99.90;;;;;;5112153;28;20207;-63
2021/06/10 06:06:02;;;;;;;22.43;18.00;;;19.50;99.90;;;;;;5128872;28;20602;-63
2021/06/10 06:08:30;;;;;;;21.50;16.33;;;19.60;99.90;;;;;;5132662;28;20588;-63
2021/06/10 06:10:56;;;;;;;21.90;18.17;;;19.70;99.90;;;;;;5132368;28;20203;-63
2021/06/10 06:13:31;;;;;;;20.57;17.03;;;19.70;99.90;;;;;;5132071;28;20683;-63
2021/06/10 06:16:03;;;;;;;19.67;16.77;;;19.70;99.90;;;;;;5132313;28;20222;-63
2021/06/10 06:18:29;;;;;;;20.67;15.07;;;19.80;99.90;;;;;;5133066;28;20202;-63
2021/06/10 06:20:57;;;;;;;22.03;18.63;;;19.90;99.90;;;;;;5135656;28;20206;-64
2021/06/10 06:23:23;;;;;;;24.53;15.77;;;20.00;99.90;;;;;;5134740;28;20259;-64
2021/06/10 06:25:49;;;;;;;23.77;17.13;;;20.10;99.90;;;;;;5132250;28;20195;-64
2021/06/10 06:28:15;;;;;;;27.70;17.37;;;20.10;99.90;;;;;;5132480;28;20203;-64
2021/06/10 06:30:41;;;;;;;21.40;15.87;;;20.10;99.90;;;;;;5132289;28;20207;-64
2021/06/10 06:33:08;;;;;;;19.97;15.43;;;20.10;99.90;;;;;;5132438;28;20203;-64
2021/06/10 06:35:34;;;;;;;18.23;15.23;;;20.30;99.90;;;;;;5132501;28;20279;-64
2021/06/10 06:38:01;;;;;;;19.40;15.07;;;20.40;99.90;;;;;;5134527;28;20226;-64
2021/06/10 06:40:27;;;;;;;20.80;14.27;;;20.50;99.90;;;;;;5132703;28;20264;-64
2021/06/10 06:42:54;;;;;;;20.57;13.93;;;20.60;99.90;;;;;;5132655;28;20229;-64
2021/06/10 06:45:20;;;;;;;26.17;13.10;;;20.70;99.90;;;;;;5132124;28;20195;-65
2021/06/10 06:47:46;;;;;;;18.13;13.17;;;20.90;99.90;;;;;;5132253;27;20276;-64
2021/06/10 06:50:13;;;;;;;17.80;12.13;;;21.00;99.90;;;;;;5135743;27;20674;-64
2021/06/10 06:52:39;;;;;;;16.87;10.50;;;20.90;99.90;;;;;;5136098;27;20207;-64
2021/06/10 06:55:07;;;;;;;15.80;9.73;;;21.10;99.90;;;;;;5135347;27;20227;-64
2021/06/10 06:57:34;;;;;;;12.07;8.63;;;21.40;99.90;;;;;;5135495;27;20230;-64
2021/06/10 07:00:00;;;;;;;15.43;8.40;;;21.50;99.90;;;;;;5135530;27;20276;-62
2021/06/10 07:02:26;;;;;;;14.07;7.50;;;21.60;99.90;;;;;;5135831;27;20238;-63
2021/06/10 07:04:54;;;;;;;11.30;7.97;;;21.60;99.90;;;;;;5135696;27;20207;-63
2021/06/10 07:07:20;;;;;;;12.40;6.93;;;21.80;99.90;;;;;;5135690;27;20699;-63
2021/06/10 07:09:46;;;;;;;10.93;6.67;;;21.90;99.90;;;;;;5135550;27;20627;-63
2021/06/10 07:12:13;;;;;;;15.00;6.10;;;22.00;99.90;;;;;;5135130;27;20214;-63
2021/06/10 07:14:40;;;;;;;9.67;5.70;;;22.10;99.90;;;;;;5135383;27;20214;-63
2021/06/10 07:17:06;;;;;;;8.80;6.40;;;22.20;99.90;;;;;;5135520;27;20222;-65
2021/06/10 07:19:32;;;;;;;10.77;6.27;;;22.30;99.90;;;;;;5135311;27;20675;-64
2021/06/10 07:21:58;;;;;;;12.47;5.73;;;22.30;99.90;;;;;;5134865;27;20735;-65
2021/06/10 07:24:25;;;;;;;8.80;5.70;;;22.20;99.90;;;;;;5135107;27;20203;-68
2021/06/10 07:26:51;;;;;;;7.67;6.10;;;22.40;99.90;;;;;;5135437;27;20223;-65
2021/06/10 07:29:19;;;;;;;16.37;6.50;;;22.50;99.90;;;;;;5135403;27;20210;-65
2021/06/10 07:31:45;;;;;;;9.83;6.43;;;22.50;99.90;;;;;;5133022;27;20210;-65
2021/06/10 07:34:12;;;;;;;10.17;6.53;;;22.70;99.90;;;;;;5134471;27;20203;-65
2021/06/10 07:36:39;;;;;;;10.13;6.10;;;22.90;99.90;;;;;;5134633;27;20231;-64
2021/06/10 07:39:07;;;;;;;9.07;5.53;;;23.10;99.90;;;;;;5134993;27;20203;-66
2021/06/10 07:41:34;;;;;;;8.87;4.67;;;23.20;99.90;;;;;;5134548;27;20203;-65
2021/06/10 07:44:00;;;;;;;7.53;4.83;;;23.40;99.90;;;;;;5135040;27;20640;-64
2021/06/10 07:46:27;;;;;;;8.73;4.70;;;23.50;99.90;;;;;;5134908;27;20219;-64
2021/06/10 07:48:54;;;;;;;8.73;4.37;;;23.50;99.90;;;;;;5135090;27;20203;-64
2021/06/10 07:51:20;;;;;;;6.07;4.10;;;23.40;99.90;;;;;;5133015;27;20215;-63
2021/06/10 07:53:46;;;;;;;8.33;4.33;;;23.60;99.90;;;;;;5135063;27;20199;-64
2021/06/10 07:56:12;;;;;;;8.33;3.93;;;23.70;99.90;;;;;;5134611;27;20230;-67
2021/06/10 07:58:38;;;;;;;5.27;3.80;;;23.80;99.90;;;;;;5134987;27;20214;-66
2021/06/10 08:01:05;;;;;;;9.13;3.90;;;23.80;99.90;;;;;;5133671;27;20211;-66
2021/06/10 08:03:32;;;;;;;5.67;4.30;;;24.00;99.90;;;;;;5134700;27;20203;-66
2021/06/10 08:05:59;;;;;;;7.47;4.97;;;23.80;99.90;;;;;;5127063;27;20671;-66
2021/06/10 08:08:25;;;;;;;7.10;4.60;;;23.90;99.90;;;;;;5122487;27;20245;-65
2021/06/10 08:10:52;;;;;;;4.80;4.30;;;23.80;99.90;;;;;;5113903;28;20594;-63
2021/06/10 08:13:21;;;;;;;6.53;4.10;;;23.90;99.90;;;;;;5113951;28;20278;-63
2021/06/10 08:15:50;;;;;;;5.70;4.20;;;24.10;99.90;;;;;;5113441;28;20719;-64
2021/06/10 08:18:17;;;;;;;4.67;4.03;;;24.20;99.90;;;;;;5113497;27;20203;-66
2021/06/10 08:20:44;;;;;;;5.03;4.03;;;24.30;99.90;;;;;;5113230;28;20203;-66
2021/06/10 08:23:11;;;;;;;5.43;4.00;;;24.10;99.90;;;;;;5113451;28;20672;-66
2021/06/10 08:25:43;;;;;;;5.40;4.00;;;24.20;99.90;;;;;;5113369;28;20203;-65
2021/06/10 08:28:10;;;;;;;8.20;3.70;;;24.10;99.90;;;;;;5113777;28;20204;-64
2021/06/10 08:30:37;;;;;;;6.53;3.90;;;24.20;99.90;;;;;;5113580;28;20215;-65
2021/06/10 08:33:03;;;;;;;6.57;3.70;;;24.30;99.90;;;;;;5113721;28;20192;-64
2021/06/10 08:35:29;;;;;;;6.10;4.07;;;24.20;99.90;;;;;;5113315;28;20223;-65
2021/06/10 08:37:58;;;;;;;8.13;3.93;;;24.20;99.90;;;;;;5113508;28;20227;-65
2021/06/10 08:40:24;;;;;;;7.73;4.40;;;24.50;99.90;;;;;;5113306;28;20206;-65
2021/06/10 08:42:50;;;;;;;6.57;3.70;;;24.60;99.90;;;;;;5113416;28;20203;-65
2021/06/10 08:45:18;;;;;;;5.57;3.70;;;24.60;99.90;;;;;;5112937;28;20203;-65
2021/06/10 08:47:46;;;;;;;7.77;4.07;;;24.70;99.90;;;;;;5113074;28;20730;-66
2021/06/10 08:50:17;;;;;;;7.67;4.10;;;24.50;99.90;;;;;;5112937;28;20230;-65
2021/06/10 08:52:43;;;;;;;6.73;3.53;;;24.50;99.90;;;;;;5113247;28;20248;-66
2021/06/10 08:55:13;;;;;;;5.83;3.90;;;24.30;99.90;;;;;;5112897;28;20223;-65
2021/06/10 08:57:39;;;;;;;5.93;3.70;;;24.40;99.90;;;;;;5113192;28;20228;-66
2021/06/10 09:00:08;;;;;;;5.80;3.77;;;24.40;99.90;;;;;;5112498;28;20578;-66
2021/06/10 09:02:34;;;;;;;5.17;3.83;;;24.40;99.90;;;;;;5113109;28;20210;-66
2021/06/10 09:05:02;;;;;;;5.80;3.90;;;24.60;99.90;;;;;;5112831;28;20227;-65
2021/06/10 09:07:33;;;;;;;5.50;3.50;;;24.80;99.90;;;;;;5112794;28;20228;-67
2021/06/10 09:10:00;;;;;;;6.07;3.80;;;24.60;99.90;;;;;;5112769;28;20664;-67
2021/06/10 09:12:27;;;;;;;8.70;4.10;;;24.90;99.90;;;;;;5112539;28;20211;-64
2021/06/10 09:14:55;;;;;;;7.33;3.90;;;25.00;99.90;;;;;;5112629;28;20224;-64
2021/06/10 09:17:32;;;;;;;6.33;4.40;;;24.70;99.90;;;;;;5112571;28;20311;-67
2021/06/10 09:20:00;;;;;;;14.20;4.00;;;24.60;99.90;;;;;;5112699;28;20214;-66
2021/06/10 09:22:27;;;;;;;6.23;4.17;;;24.80;99.90;;;;;;5112707;28;20207;-67
2021/06/10 09:25:05;;;;;;;6.93;4.30;;;24.90;99.90;;;;;;5112650;28;20373;-64
2021/06/10 09:27:33;;;;;;;7.23;4.70;;;25.00;99.90;;;;;;5112868;28;20223;-65
2021/06/10 09:30:00;;;;;;;6.17;3.70;;;24.80;99.90;;;;;;5112274;28;20613;-65
2021/06/10 09:32:30;;;;;;;8.33;4.37;;;24.80;99.90;;;;;;5112508;28;20226;-64
2021/06/10 09:34:58;;;;;;;7.47;4.13;;;25.00;99.90;;;;;;5112056;28;20216;-64
2021/06/10 09:37:30;;;;;;;8.10;4.90;;;25.10;99.90;;;;;;5112010;28;20288;-64
2021/06/10 09:39:57;;;;;;;5.60;4.67;;;25.10;99.90;;;;;;5112214;28;20196;-64
2021/06/10 09:42:29;;;;;;;4.03;3.60;;;25.20;99.90;;;;;;5112845;28;20604;-67
2021/06/10 09:44:59;;;;;;;6.00;4.03;;;25.40;99.90;;;;;;5116093;28;20215;-67
2021/06/10 09:47:30;;;;;;;7.40;4.33;;;25.60;99.90;;;;;;5114901;28;20219;-67
2021/06/10 09:49:56;;;;;;;6.80;3.40;;;25.70;99.90;;;;;;5111974;28;20265;-66
2021/06/10 09:52:23;;;;;;;5.97;4.30;;;25.60;99.90;;;;;;5114731;28;20703;-68
2021/06/10 09:54:51;;;;;;;5.60;3.37;;;25.50;99.90;;;;;;5117786;28;20305;-63
2021/06/10 09:57:18;;;;;;;7.60;3.43;;;25.40;99.90;;;;;;5116164;28;20262;-69
2021/06/10 10:00:06;;;;;;;6.60;3.67;;;25.40;99.90;;;;;;5112053;28;20265;-67
2021/06/10 10:02:32;;;;;;;5.33;3.17;;;25.40;99.90;;;;;;5111409;28;20207;-64
2021/06/10 10:05:01;;;;;;;7.37;3.43;;;25.10;99.90;;;;;;5111790;28;20577;-65
2021/06/10 10:07:29;;;;;;;5.23;3.27;;;25.10;99.90;;;;;;5111907;28;20219;-67
2021/06/10 10:09:57;;;;;;;5.13;3.00;;;25.00;99.90;;;;;;5111956;28;20207;-68
2021/06/10 10:12:27;;;;;;;6.07;3.33;;;25.00;99.90;;;;;;5111932;28;20299;-67
2021/06/10 10:14:55;;;;;;;6.10;3.00;;;24.70;99.90;;;;;;5111437;28;20355;-67
2021/06/10 10:17:25;;;;;;;3.60;2.90;;;24.40;99.90;;;;;;5111713;28;20224;-68
2021/06/10 10:19:54;;;;;;;6.93;3.17;;;24.60;99.90;;;;;;5112199;28;20262;-68
2021/06/10 10:22:20;;;;;;;4.80;2.90;;;24.80;99.90;;;;;;5111880;28;20204;-68
2021/06/10 10:24:46;;;;;;;5.43;2.80;;;24.90;99.90;;;;;;5115282;28;20200;-67
2021/06/10 10:27:13;;;;;;;3.73;2.43;;;25.00;99.90;;;;;;5116070;28;20634;-67
2021/06/10 10:29:41;;;;;;;5.03;2.80;;;25.00;99.90;;;;;;5115876;28;20203;-67
2021/06/10 10:32:09;;;;;;;4.20;3.03;;;25.10;99.90;;;;;;5116479;28;20210;-68
2021/06/10 10:34:38;;;;;;;6.57;3.40;;;25.10;99.90;;;;;;5115554;28;20743;-68
2021/06/10 10:37:19;;;;;;;4.90;3.73;;;25.00;99.90;;;;;;5115829;28;20223;-68
2021/06/10 10:39:46;;;;;;;6.97;2.77;;;25.00;99.90;;;;;;5115726;28;20204;-67
2021/06/10 10:42:29;;;;;;;4.20;2.83;;;25.20;99.90;;;;;;5115646;28;20707;-67
2021/06/10 10:45:17;;;;;;;3.07;2.60;;;25.50;99.90;;;;;;5115512;28;20199;-67
2021/06/10 10:47:47;;;;;;;4.00;2.73;;;25.50;99.90;;;;;;5115848;28;20231;-66
2021/06/10 10:50:18;;;;;;;3.00;2.60;;;25.60;99.90;;;;;;5115235;28;20227;-67
2021/06/10 10:52:55;;;;;;;4.33;2.57;;;25.60;99.90;;;;;;5115712;28;20597;-68
2021/06/10 10:55:29;;;;;;;4.60;2.80;;;25.80;99.90;;;;;;5115412;28;20231;-67
2021/06/10 10:58:01;;;;;;;6.47;2.67;;;25.90;99.90;;;;;;5115718;28;20280;-67
2021/06/10 11:04:01;;;;;;;4.27;3.57;;;26.10;99.90;;;;;;5072207;28;20275;-66
2021/06/10 11:06:36;;;;;;;6.80;4.07;;;25.90;99.90;;;;;;5104335;28;20598;-68
2021/06/10 11:09:10;;;;;;;11.17;3.43;;;26.00;99.90;;;;;;5115048;28;20310;-67
2021/06/10 11:12:00;;;;;;;6.87;3.03;;;26.00;99.90;;;;;;5115343;28;20577;-68
2021/06/10 11:14:54;;;;;;;9.20;3.80;;;26.20;99.90;;;;;;5115087;28;20211;-70
2021/06/10 11:17:23;;;;;;;3.90;2.80;;;26.30;99.90;;;;;;5197838;22;20586;-67
2021/06/10 11:20:00;;;;;;;4.37;3.30;;;26.20;99.90;;;;;;5074596;28;20212;-68
2021/06/10 11:22:36;;;;;;;3.57;2.90;;;26.20;99.90;;;;;;5074400;28;20212;-66
2021/06/10 11:25:04;;;;;;;7.17;3.40;;;26.30;99.90;;;;;;5074094;28;20201;-66
2021/06/10 11:27:40;;;;;;;4.57;2.70;;;26.50;99.90;;;;;;5089448;28;20227;-66
2021/06/10 11:30:13;;;;;;;3.60;2.93;;;26.70;99.90;;;;;;5093915;28;20692;-65
2021/06/10 11:32:59;;;;;;;2.80;2.50;;;26.80;99.90;;;;;;5094524;28;20271;-66
2021/06/10 11:35:29;;;;;;;4.83;2.50;;;26.80;99.90;;;;;;5093018;28;20224;-67
2021/06/10 11:37:59;;;;;;;4.50;2.90;;;26.80;99.90;;;;;;5554461;22;20265;-65
2021/06/10 11:40:25;;;;;;;6.03;3.40;;;26.70;99.90;;;;;;5114425;28;20207;-66
2021/06/10 11:42:52;;;;;;;7.37;3.97;;;26.80;99.90;;;;;;5115005;28;20623;-66
2021/06/10 11:45:22;;;;;;;5.67;3.63;;;27.00;99.90;;;;;;5114827;28;20204;-67
2021/06/10 11:47:49;;;;;;;6.73;4.03;;;27.00;99.90;;;;;;5144080;22;20259;-67
2021/06/10 11:50:27;;;;;;;8.87;4.23;;;26.70;99.90;;;;;;5114822;28;20664;-67
2021/06/10 11:52:55;;;;;;;8.03;4.30;;;26.40;99.90;;;;;;5097318;28;20577;-67
2021/06/10 11:55:22;;;;;;;7.70;4.07;;;26.50;99.90;;;;;;5093721;28;20228;-66
2021/06/10 11:58:00;;;;;;;5.20;3.83;;;26.30;99.90;;;;;;5093908;28;20266;-67
2021/06/10 12:00:28;;;;;;;6.13;4.23;;;26.30;99.90;;;;;;5093888;28;20676;-67
2021/06/10 12:02:56;;;;;;;7.43;3.93;;;25.90;99.90;;;;;;5094670;28;20223;-67
2021/06/10 12:05:23;;;;;;;6.90;4.73;;;26.00;99.90;;;;;;5095220;28;20246;-68
2021/06/10 12:07:49;;;;;;;5.93;3.77;;;26.20;99.90;;;;;;5140264;22;20232;-68
2021/06/10 12:10:18;;;;;;;4.97;4.20;;;26.20;99.90;;;;;;5115646;28;20204;-66
2021/06/10 12:12:48;;;;;;;6.47;3.90;;;26.00;99.90;;;;;;5114295;28;20203;-67
2021/06/10 12:15:30;;;;;;;7.47;4.47;;;26.10;99.90;;;;;;5113945;28;20292;-67
2021/06/10 12:17:58;;;;;;;12.07;9.33;;;26.20;99.90;;;;;;5113603;28;20599;-68
2021/06/10 12:20:26;;;;;;;4.73;3.40;;;26.00;99.90;;;;;;5113884;28;20207;-66
2021/06/10 12:22:52;;;;;;;5.43;3.67;;;26.00;99.90;;;;;;5114114;28;20211;-68
2021/06/10 12:25:20;;;;;;;5.83;4.00;;;26.10;99.90;;;;;;5113716;28;20237;-67
2021/06/10 12:27:47;;;;;;;6.50;4.10;;;26.10;99.90;;;;;;5113916;28;20224;-66
2021/06/10 12:30:31;;;;;;;6.77;3.80;;;26.10;99.90;;;;;;5113613;28;20216;-66
2021/06/10 12:33:16;;;;;;;12.13;3.80;;;26.20;99.90;;;;;;5114282;28;20244;-67
2021/06/10 12:38:12;;;;;;;4.70;4.20;;;26.00;99.90;;;;;;5160234;22;20726;-67
2021/06/10 12:40:40;;;;;;;5.67;4.10;;;25.90;99.90;;;;;;5113118;28;20244;-66
2021/06/10 12:43:10;;;;;;;4.73;3.87;;;26.00;99.90;;;;;;5113374;28;20200;-66
2021/06/10 12:45:37;;;;;;;6.37;3.70;;;26.00;99.90;;;;;;5112910;28;20623;-66
2021/06/10 12:48:19;;;;;;;5.33;4.20;;;26.30;99.90;;;;;;5113277;28;20707;-66